Terminal Aerodrome Forecast
Issued by NWS Blacksburg, VA

Current Version | Previous Version | Graphics & Text | Print | Product List | Glossary On
Versions: 1 2 3 4 5 6 7 8 9 10 11 12 13 14 15 16 17 18 19 20 21 22 23 24 25 26 27 28 29 30 31 32 33 34 35 36 37 38
861
FTUS41 KRNK 062108 AAA
TAFBLF
TAF AMD
KBLF 062108Z 0621/0718 VRB03KT P6SM -RA SCT008 OVC025
      TEMPO 0621/0623 4SM -DZ BR BKN008
     FM070200 28007KT 4SM -DZ BR OVC005
     FM070600 29009G18KT 2SM -DZ BR OVC003
     FM071200 30008KT P6SM SCT007 OVC015=

USA.gov is the U.S. government's official web portal to all federal, state and local government web resources and services.